Wilson Observed Data For Previous 48 Hours

Caption
Day and Hour Reservoir Elevation (behind dam)* Tailwater Elevation (below dam)* Average Hourly Discharge*
1/15/2018 1 AM CST 505.27 411.24 13,100
1/15/2018 2 AM CST 505.28 411.26 13,100
1/15/2018 3 AM CST 505.32 411.25 13,100
1/15/2018 4 AM CST 505.33 411.26 13,100
1/15/2018 5 AM CST 505.36 411.73 13,100
1/15/2018 6 AM CST 505.38 412.10 19,800
1/15/2018 7 AM CST 505.37 412.13 20,000
1/15/2018 8 AM CST 505.35 412.14 19,400
1/15/2018 9 AM CST 505.39 412.08 19,600
1/15/2018 10 AM CST 505.34 412.11 18,280
1/15/2018 11 AM CST 505.35 412.11 20,150
1/15/2018 12 PM CST 505.36 412.11 20,075
1/15/2018 1 PM CST 505.37 411.22 13,617
1/15/2018 2 PM CST 505.40 411.21 13,510
1/15/2018 3 PM CST 505.44 411.21 13,629
1/15/2018 4 PM CST 505.45 411.23 13,504
1/15/2018 5 PM CST 505.45 411.56 13,812
1/15/2018 6 PM CST 505.50 412.11 20,376
1/15/2018 7 PM CST 505.43 412.21 20,262
1/15/2018 8 PM CST 505.45 412.09 20,503
1/15/2018 9 PM CST 505.46 412.11 20,392
1/15/2018 10 PM CST 505.42 412.08 20,111
1/15/2018 11 PM CST 505.42 412.31 19,904
1/16/2018 12 AM CST 505.46 412.11 20,009
1/16/2018 1 AM CST 505.41 412.12 20,344
1/16/2018 2 AM CST 505.41 412.11 20,338
1/16/2018 3 AM CST 505.42 412.59 20,484
1/16/2018 4 AM CST 505.42 413.26 31,603
1/16/2018 5 AM CST 505.33 414.56 43,900
1/16/2018 6 AM CST 505.37 414.54 45,626
1/16/2018 7 AM CST 505.37 414.39 45,033
1/16/2018 8 AM CST 505.40 414.45 43,223
1/16/2018 9 AM CST 505.43 414.44 43,912
1/16/2018 10 AM CST 505.38 414.47 43,718
1/16/2018 11 AM CST 505.44 413.51 34,474
1/16/2018 12 PM CST 505.41 412.87 26,826
1/16/2018 1 PM CST 505.40 412.91 27,930
1/16/2018 2 PM CST 505.35 412.86 27,781
1/16/2018 3 PM CST 505.27 412.76 26,878
1/16/2018 4 PM CST 505.37 412.77 27,183
1/16/2018 5 PM CST 505.27 415.51 40,832
1/16/2018 6 PM CST 505.37 415.77 57,796
1/16/2018 7 PM CST 505.39 415.85 58,190
1/16/2018 8 PM CST 505.36 415.85 58,367
1/16/2018 9 PM CST 505.38 415.79 58,724
1/16/2018 10 PM CST 505.42 414.50 44,267
1/16/2018 11 PM CST 505.44 413.56 32,491
1/17/2018 12 AM CST 505.47 412.79 26,986
1/17/2018 1 AM CST 505.50 412.95 27,539
1/17/2018 2 AM CST 505.46 412.92 28,247
1/17/2018 3 AM CST 505.45 413.26 28,048
1/17/2018 4 AM CST 505.50 414.62 40,087
1/17/2018 5 AM CST 505.45 415.42 49,637
1/17/2018 6 AM CST 505.51 416.14 60,118
1/17/2018 7 AM CST 505.56 416.72 66,730
1/17/2018 8 AM CST 505.52 416.56 69,215
1/17/2018 9 AM CST 505.58 416.58 69,328
1/17/2018 10 AM CST 505.72 414.78 59,718
1/17/2018 11 AM CST 505.63 413.35 39,872
1/17/2018 12 PM CST 505.60 413.06 33,578
1/17/2018 1 PM CST 505.62 412.84 33,732
1/17/2018 2 PM CST 505.52 412.94 32,678
1/17/2018 3 PM CST 505.49 412.89 28,379
1/17/2018 4 PM CST 505.50 413.25 28,743
1/17/2018 5 PM CST 505.47 414.45 38,233
1/17/2018 6 PM CST 505.46 415.62 49,863
1/17/2018 7 PM CST 505.56 415.80 58,697
1/17/2018 8 PM CST 505.54 415.86 58,654
1/17/2018 9 PM CST 505.54 415.93 58,790

Elevations are in feet above sea level. Discharges are in cubic feet per second and are reported at the end of the hour.